sensor_id;sensor_type;location;lat;lon;timestamp;temperature;humidity
46754;DHT22;32500;50.620;3.400;2023-03-08T00:00:15;15.20;57.70
46754;DHT22;32500;50.620;3.400;2023-03-08T00:02:40;15.10;57.70
46754;DHT22;32500;50.620;3.400;2023-03-08T00:05:07;15.20;57.50
46754;DHT22;32500;50.620;3.400;2023-03-08T00:07:33;15.20;57.40
46754;DHT22;32500;50.620;3.400;2023-03-08T00:09:58;15.20;57.30
46754;DHT22;32500;50.620;3.400;2023-03-08T00:12:24;15.10;57.30
46754;DHT22;32500;50.620;3.400;2023-03-08T00:14:50;15.20;57.20
46754;DHT22;32500;50.620;3.400;2023-03-08T00:17:16;15.20;57.80
46754;DHT22;32500;50.620;3.400;2023-03-08T00:19:43;15.20;57.00
46754;DHT22;32500;50.620;3.400;2023-03-08T00:22:09;15.20;56.70
46754;DHT22;32500;50.620;3.400;2023-03-08T00:24:35;15.30;56.70
46754;DHT22;32500;50.620;3.400;2023-03-08T00:27:01;15.20;56.70
46754;DHT22;32500;50.620;3.400;2023-03-08T00:29:27;15.10;56.70
46754;DHT22;32500;50.620;3.400;2023-03-08T00:31:53;15.10;56.70
46754;DHT22;32500;50.620;3.400;2023-03-08T00:34:18;15.10;56.80
46754;DHT22;32500;50.620;3.400;2023-03-08T00:36:44;15.10;56.60
46754;DHT22;32500;50.620;3.400;2023-03-08T00:39:10;15.10;56.70
46754;DHT22;32500;50.620;3.400;2023-03-08T00:41:36;15.00;56.80
46754;DHT22;32500;50.620;3.400;2023-03-08T00:44:02;15.00;56.60
46754;DHT22;32500;50.620;3.400;2023-03-08T00:46:28;15.00;56.60
46754;DHT22;32500;50.620;3.400;2023-03-08T00:48:54;15.00;56.60
46754;DHT22;32500;50.620;3.400;2023-03-08T00:51:20;15.10;56.40
46754;DHT22;32500;50.620;3.400;2023-03-08T00:53:46;15.10;56.40
46754;DHT22;32500;50.620;3.400;2023-03-08T00:56:12;15.10;56.30
46754;DHT22;32500;50.620;3.400;2023-03-08T00:58:39;15.10;56.30
46754;DHT22;32500;50.620;3.400;2023-03-08T01:01:06;15.00;56.30
46754;DHT22;32500;50.620;3.400;2023-03-08T01:03:32;15.00;56.20
46754;DHT22;32500;50.620;3.400;2023-03-08T01:06:03;15.10;56.30
46754;DHT22;32500;50.620;3.400;2023-03-08T01:08:29;15.00;56.20
46754;DHT22;32500;50.620;3.400;2023-03-08T01:10:59;15.10;56.00
46754;DHT22;32500;50.620;3.400;2023-03-08T01:13:31;15.00;56.00
46754;DHT22;32500;50.620;3.400;2023-03-08T01:15:57;15.00;55.90
46754;DHT22;32500;50.620;3.400;2023-03-08T01:18:23;15.00;56.00
46754;DHT22;32500;50.620;3.400;2023-03-08T01:21:00;15.00;55.90
46754;DHT22;32500;50.620;3.400;2023-03-08T01:23:26;15.00;55.80
46754;DHT22;32500;50.620;3.400;2023-03-08T01:25:59;15.00;55.70
46754;DHT22;32500;50.620;3.400;2023-03-08T01:28:25;15.00;55.70
46754;DHT22;32500;50.620;3.400;2023-03-08T01:30:51;15.10;55.60
46754;DHT22;32500;50.620;3.400;2023-03-08T01:33:17;15.00;55.50
46754;DHT22;32500;50.620;3.400;2023-03-08T01:35:42;15.00;55.60
46754;DHT22;32500;50.620;3.400;2023-03-08T01:38:08;15.00;55.40
46754;DHT22;32500;50.620;3.400;2023-03-08T01:40:34;15.00;55.60
46754;DHT22;32500;50.620;3.400;2023-03-08T01:49:18;15.00;55.40
46754;DHT22;32500;50.620;3.400;2023-03-08T01:51:32;15.00;55.50
46754;DHT22;32500;50.620;3.400;2023-03-08T01:54:02;15.00;55.50
46754;DHT22;32500;50.620;3.400;2023-03-08T01:56:28;15.00;55.30
46754;DHT22;32500;50.620;3.400;2023-03-08T01:58:55;15.00;55.20
46754;DHT22;32500;50.620;3.400;2023-03-08T02:01:21;15.00;55.20
46754;DHT22;32500;50.620;3.400;2023-03-08T02:03:47;15.00;55.20
46754;DHT22;32500;50.620;3.400;2023-03-08T02:06:14;15.00;55.10
46754;DHT22;32500;50.620;3.400;2023-03-08T02:08:40;15.00;55.20
46754;DHT22;32500;50.620;3.400;2023-03-08T02:11:07;15.00;55.00
46754;DHT22;32500;50.620;3.400;2023-03-08T02:13:33;15.00;55.00
46754;DHT22;32500;50.620;3.400;2023-03-08T02:15:59;15.00;54.90
46754;DHT22;32500;50.620;3.400;2023-03-08T02:18:27;15.00;54.80
46754;DHT22;32500;50.620;3.400;2023-03-08T02:20:52;15.00;54.80
46754;DHT22;32500;50.620;3.400;2023-03-08T02:23:24;15.00;54.80
46754;DHT22;32500;50.620;3.400;2023-03-08T02:25:53;15.00;54.70
46754;DHT22;32500;50.620;3.400;2023-03-08T02:28:20;15.00;54.70
46754;DHT22;32500;50.620;3.400;2023-03-08T02:30:46;14.90;54.80
46754;DHT22;32500;50.620;3.400;2023-03-08T02:33:12;15.00;54.80
46754;DHT22;32500;50.620;3.400;2023-03-08T02:35:37;14.90;54.80
46754;DHT22;32500;50.620;3.400;2023-03-08T02:38:07;15.00;54.80
46754;DHT22;32500;50.620;3.400;2023-03-08T02:40:35;14.90;54.90
46754;DHT22;32500;50.620;3.400;2023-03-08T02:43:00;14.90;54.80
46754;DHT22;32500;50.620;3.400;2023-03-08T02:45:26;14.90;54.70
46754;DHT22;32500;50.620;3.400;2023-03-08T02:47:52;14.90;54.60
46754;DHT22;32500;50.620;3.400;2023-03-08T02:50:17;14.90;54.70
46754;DHT22;32500;50.620;3.400;2023-03-08T02:52:43;14.90;54.80
46754;DHT22;32500;50.620;3.400;2023-03-08T02:55:09;14.90;54.70
46754;DHT22;32500;50.620;3.400;2023-03-08T02:57:35;14.90;54.50
46754;DHT22;32500;50.620;3.400;2023-03-08T03:00:01;15.00;54.40
46754;DHT22;32500;50.620;3.400;2023-03-08T03:02:26;14.90;54.30
46754;DHT22;32500;50.620;3.400;2023-03-08T03:04:52;14.90;55.00
46754;DHT22;32500;50.620;3.400;2023-03-08T03:07:18;14.90;54.40
46754;DHT22;32500;50.620;3.400;2023-03-08T03:09:43;15.00;54.40
46754;DHT22;32500;50.620;3.400;2023-03-08T03:12:09;14.90;54.30
46754;DHT22;32500;50.620;3.400;2023-03-08T03:14:35;14.90;54.30
46754;DHT22;32500;50.620;3.400;2023-03-08T03:17:00;14.90;54.30
46754;DHT22;32500;50.620;3.400;2023-03-08T03:19:26;14.80;54.30
46754;DHT22;32500;50.620;3.400;2023-03-08T03:21:52;14.90;54.30
46754;DHT22;32500;50.620;3.400;2023-03-08T03:24:17;14.80;54.40
46754;DHT22;32500;50.620;3.400;2023-03-08T03:26:43;14.80;54.50
46754;DHT22;32500;50.620;3.400;2023-03-08T03:29:08;14.80;54.50
46754;DHT22;32500;50.620;3.400;2023-03-08T03:31:34;14.80;54.50
46754;DHT22;32500;50.620;3.400;2023-03-08T03:34:00;14.70;54.50
46754;DHT22;32500;50.620;3.400;2023-03-08T03:36:25;14.70;54.50
46754;DHT22;32500;50.620;3.400;2023-03-08T03:38:51;14.70;54.30
46754;DHT22;32500;50.620;3.400;2023-03-08T03:41:19;14.70;54.60
46754;DHT22;32500;50.620;3.400;2023-03-08T03:43:46;14.80;54.40
46754;DHT22;32500;50.620;3.400;2023-03-08T03:46:14;14.70;54.50
46754;DHT22;32500;50.620;3.400;2023-03-08T03:48:40;14.70;54.50
46754;DHT22;32500;50.620;3.400;2023-03-08T03:51:09;14.70;54.50
46754;DHT22;32500;50.620;3.400;2023-03-08T03:53:36;14.80;54.40
46754;DHT22;32500;50.620;3.400;2023-03-08T03:56:17;14.70;54.30
46754;DHT22;32500;50.620;3.400;2023-03-08T03:58:43;14.60;54.40
46754;DHT22;32500;50.620;3.400;2023-03-08T04:01:34;14.70;54.60
46754;DHT22;32500;50.620;3.400;2023-03-08T04:04:00;14.70;54.50
46754;DHT22;32500;50.620;3.400;2023-03-08T04:06:30;14.70;54.40
46754;DHT22;32500;50.620;3.400;2023-03-08T04:09:09;14.70;54.30
46754;DHT22;32500;50.620;3.400;2023-03-08T04:11:38;14.70;54.80
46754;DHT22;32500;50.620;3.400;2023-03-08T04:14:05;14.70;54.30
46754;DHT22;32500;50.620;3.400;2023-03-08T04:16:35;14.70;54.80
46754;DHT22;32500;50.620;3.400;2023-03-08T04:19:05;14.70;54.20
46754;DHT22;32500;50.620;3.400;2023-03-08T04:21:31;14.60;54.40
46754;DHT22;32500;50.620;3.400;2023-03-08T04:23:57;14.60;54.30
46754;DHT22;32500;50.620;3.400;2023-03-08T04:26:23;14.60;54.20
46754;DHT22;32500;50.620;3.400;2023-03-08T04:28:49;14.60;54.20
46754;DHT22;32500;50.620;3.400;2023-03-08T04:31:26;14.60;54.30
46754;DHT22;32500;50.620;3.400;2023-03-08T04:33:53;14.70;54.40
46754;DHT22;32500;50.620;3.400;2023-03-08T04:36:19;14.60;54.10
46754;DHT22;32500;50.620;3.400;2023-03-08T04:38:45;14.60;54.20
46754;DHT22;32500;50.620;3.400;2023-03-08T04:41:12;14.60;54.30
46754;DHT22;32500;50.620;3.400;2023-03-08T04:46:05;14.50;54.30
46754;DHT22;32500;50.620;3.400;2023-03-08T04:48:31;14.50;54.40
46754;DHT22;32500;50.620;3.400;2023-03-08T04:50:59;14.60;54.20
46754;DHT22;32500;50.620;3.400;2023-03-08T04:53:26;14.60;54.00
46754;DHT22;32500;50.620;3.400;2023-03-08T04:55:52;14.50;54.20
46754;DHT22;32500;50.620;3.400;2023-03-08T04:58:19;14.50;54.10
46754;DHT22;32500;50.620;3.400;2023-03-08T05:00:44;14.50;54.30
46754;DHT22;32500;50.620;3.400;2023-03-08T05:03:10;14.60;54.10
46754;DHT22;32500;50.620;3.400;2023-03-08T05:05:51;14.50;54.00
46754;DHT22;32500;50.620;3.400;2023-03-08T05:08:17;14.50;54.00
46754;DHT22;32500;50.620;3.400;2023-03-08T05:10:54;14.60;53.70
46754;DHT22;32500;50.620;3.400;2023-03-08T05:13:22;14.50;54.10
46754;DHT22;32500;50.620;3.400;2023-03-08T05:15:48;14.50;54.10
46754;DHT22;32500;50.620;3.400;2023-03-08T05:18:14;14.50;54.10
46754;DHT22;32500;50.620;3.400;2023-03-08T05:20:39;14.40;54.10
46754;DHT22;32500;50.620;3.400;2023-03-08T05:23:05;14.40;54.30
46754;DHT22;32500;50.620;3.400;2023-03-08T05:25:31;14.30;54.40
46754;DHT22;32500;50.620;3.400;2023-03-08T05:27:58;14.40;54.40
46754;DHT22;32500;50.620;3.400;2023-03-08T05:30:24;14.30;54.40
46754;DHT22;32500;50.620;3.400;2023-03-08T05:32:49;14.30;54.30
46754;DHT22;32500;50.620;3.400;2023-03-08T05:35:15;14.40;54.40
46754;DHT22;32500;50.620;3.400;2023-03-08T05:37:41;14.30;54.30
46754;DHT22;32500;50.620;3.400;2023-03-08T05:40:07;14.30;54.30
46754;DHT22;32500;50.620;3.400;2023-03-08T05:42:33;14.30;54.40
46754;DHT22;32500;50.620;3.400;2023-03-08T05:44:58;14.10;54.60
46754;DHT22;32500;50.620;3.400;2023-03-08T05:47:24;14.00;55.00
46754;DHT22;32500;50.620;3.400;2023-03-08T05:49:50;13.90;55.80
46754;DHT22;32500;50.620;3.400;2023-03-08T05:52:16;13.90;55.70
46754;DHT22;32500;50.620;3.400;2023-03-08T05:54:41;13.80;55.90
46754;DHT22;32500;50.620;3.400;2023-03-08T05:57:07;13.80;56.20
46754;DHT22;32500;50.620;3.400;2023-03-08T05:59:33;13.70;56.40
46754;DHT22;32500;50.620;3.400;2023-03-08T06:01:59;13.80;56.20
46754;DHT22;32500;50.620;3.400;2023-03-08T06:04:24;13.80;56.10
46754;DHT22;32500;50.620;3.400;2023-03-08T06:06:50;13.70;56.60
46754;DHT22;32500;50.620;3.400;2023-03-08T06:09:15;13.70;56.70
46754;DHT22;32500;50.620;3.400;2023-03-08T06:11:41;13.60;57.00
46754;DHT22;32500;50.620;3.400;2023-03-08T06:14:07;13.70;56.90
46754;DHT22;32500;50.620;3.400;2023-03-08T06:16:32;13.70;56.80
46754;DHT22;32500;50.620;3.400;2023-03-08T06:19:00;13.60;57.60
46754;DHT22;32500;50.620;3.400;2023-03-08T06:21:26;13.60;57.20
46754;DHT22;32500;50.620;3.400;2023-03-08T06:23:52;13.60;57.20
46754;DHT22;32500;50.620;3.400;2023-03-08T06:26:18;13.60;57.20
46754;DHT22;32500;50.620;3.400;2023-03-08T06:28:44;13.60;57.30
46754;DHT22;32500;50.620;3.400;2023-03-08T06:31:13;13.70;57.40
46754;DHT22;32500;50.620;3.400;2023-03-08T06:33:39;13.70;57.40
46754;DHT22;32500;50.620;3.400;2023-03-08T06:36:12;13.70;57.30
46754;DHT22;32500;50.620;3.400;2023-03-08T06:38:39;13.70;57.40
46754;DHT22;32500;50.620;3.400;2023-03-08T06:41:06;13.90;56.90
46754;DHT22;32500;50.620;3.400;2023-03-08T06:43:32;13.90;56.80
46754;DHT22;32500;50.620;3.400;2023-03-08T06:46:05;13.80;56.80
46754;DHT22;32500;50.620;3.400;2023-03-08T06:48:32;13.80;57.20
46754;DHT22;32500;50.620;3.400;2023-03-08T06:50:58;13.80;56.90
46754;DHT22;32500;50.620;3.400;2023-03-08T06:53:24;13.90;56.70
46754;DHT22;32500;50.620;3.400;2023-03-08T06:55:49;13.90;56.50
46754;DHT22;32500;50.620;3.400;2023-03-08T06:58:15;13.90;56.60
46754;DHT22;32500;50.620;3.400;2023-03-08T07:00:40;14.00;56.20
46754;DHT22;32500;50.620;3.400;2023-03-08T07:03:06;14.00;56.00
46754;DHT22;32500;50.620;3.400;2023-03-08T07:05:32;13.90;56.00
46754;DHT22;32500;50.620;3.400;2023-03-08T07:07:58;13.90;56.00
46754;DHT22;32500;50.620;3.400;2023-03-08T07:10:23;13.90;56.30
46754;DHT22;32500;50.620;3.400;2023-03-08T07:12:49;14.00;56.00
46754;DHT22;32500;50.620;3.400;2023-03-08T07:15:18;13.90;56.00
46754;DHT22;32500;50.620;3.400;2023-03-08T07:17:45;13.90;56.00
46754;DHT22;32500;50.620;3.400;2023-03-08T07:20:12;13.90;56.00
46754;DHT22;32500;50.620;3.400;2023-03-08T07:22:40;13.90;55.90
46754;DHT22;32500;50.620;3.400;2023-03-08T07:25:07;13.90;55.80
46754;DHT22;32500;50.620;3.400;2023-03-08T07:27:33;13.90;56.00
46754;DHT22;32500;50.620;3.400;2023-03-08T07:29:59;13.90;55.90
46754;DHT22;32500;50.620;3.400;2023-03-08T07:32:25;13.90;56.00
46754;DHT22;32500;50.620;3.400;2023-03-08T07:34:56;13.80;56.20
46754;DHT22;32500;50.620;3.400;2023-03-08T07:37:22;14.10;56.50
46754;DHT22;32500;50.620;3.400;2023-03-08T07:39:48;14.30;55.80
46754;DHT22;32500;50.620;3.400;2023-03-08T07:42:14;14.50;56.30
46754;DHT22;32500;50.620;3.400;2023-03-08T07:44:40;14.50;56.50
46754;DHT22;32500;50.620;3.400;2023-03-08T07:47:06;14.50;56.40
46754;DHT22;32500;50.620;3.400;2023-03-08T07:49:32;14.50;55.60
46754;DHT22;32500;50.620;3.400;2023-03-08T07:51:58;14.70;54.90
46754;DHT22;32500;50.620;3.400;2023-03-08T07:54:24;14.70;54.70
46754;DHT22;32500;50.620;3.400;2023-03-08T07:56:53;14.60;54.70
46754;DHT22;32500;50.620;3.400;2023-03-08T07:59:21;14.70;54.60
46754;DHT22;32500;50.620;3.400;2023-03-08T08:01:47;14.80;55.00
46754;DHT22;32500;50.620;3.400;2023-03-08T08:04:13;14.80;55.50
46754;DHT22;32500;50.620;3.400;2023-03-08T08:06:39;14.80;55.60
46754;DHT22;32500;50.620;3.400;2023-03-08T08:09:06;14.80;55.80
46754;DHT22;32500;50.620;3.400;2023-03-08T08:11:32;14.90;55.80
46754;DHT22;32500;50.620;3.400;2023-03-08T08:13:59;14.90;55.70
46754;DHT22;32500;50.620;3.400;2023-03-08T08:16:25;14.70;55.40
46754;DHT22;32500;50.620;3.400;2023-03-08T08:18:52;14.60;55.50
46754;DHT22;32500;50.620;3.400;2023-03-08T08:21:18;14.50;55.40
46754;DHT22;32500;50.620;3.400;2023-03-08T08:23:44;14.50;55.40
46754;DHT22;32500;50.620;3.400;2023-03-08T08:26:19;14.40;55.40
46754;DHT22;32500;50.620;3.400;2023-03-08T08:28:48;14.40;55.30
46754;DHT22;32500;50.620;3.400;2023-03-08T08:31:16;14.40;55.70
46754;DHT22;32500;50.620;3.400;2023-03-08T08:33:42;14.40;55.00
46754;DHT22;32500;50.620;3.400;2023-03-08T08:36:11;14.40;54.90
46754;DHT22;32500;50.620;3.400;2023-03-08T08:38:37;14.30;54.80
46754;DHT22;32500;50.620;3.400;2023-03-08T08:41:06;14.30;54.80
46754;DHT22;32500;50.620;3.400;2023-03-08T08:43:33;14.30;54.70
46754;DHT22;32500;50.620;3.400;2023-03-08T08:45:59;14.40;54.70
46754;DHT22;32500;50.620;3.400;2023-03-08T08:48:25;14.50;54.40
46754;DHT22;32500;50.620;3.400;2023-03-08T08:50:51;14.60;54.00
46754;DHT22;32500;50.620;3.400;2023-03-08T08:53:18;14.60;53.90
46754;DHT22;32500;50.620;3.400;2023-03-08T08:55:44;14.80;53.50
46754;DHT22;32500;50.620;3.400;2023-03-08T08:58:09;14.80;53.60
46754;DHT22;32500;50.620;3.400;2023-03-08T09:00:35;14.80;53.60
46754;DHT22;32500;50.620;3.400;2023-03-08T09:03:03;14.80;53.50
46754;DHT22;32500;50.620;3.400;2023-03-08T09:05:29;14.70;53.40
46754;DHT22;32500;50.620;3.400;2023-03-08T09:07:57;14.80;53.60
46754;DHT22;32500;50.620;3.400;2023-03-08T09:10:26;14.80;53.40
46754;DHT22;32500;50.620;3.400;2023-03-08T09:12:52;14.80;53.20
46754;DHT22;32500;50.620;3.400;2023-03-08T09:15:17;14.80;53.30
46754;DHT22;32500;50.620;3.400;2023-03-08T09:17:43;14.90;53.10
46754;DHT22;32500;50.620;3.400;2023-03-08T09:20:10;15.00;53.00
46754;DHT22;32500;50.620;3.400;2023-03-08T09:22:36;14.90;52.90
46754;DHT22;32500;50.620;3.400;2023-03-08T09:25:03;14.90;52.90
46754;DHT22;32500;50.620;3.400;2023-03-08T09:27:29;15.00;52.80
46754;DHT22;32500;50.620;3.400;2023-03-08T09:29:54;14.90;52.80
46754;DHT22;32500;50.620;3.400;2023-03-08T09:32:20;14.80;53.00
46754;DHT22;32500;50.620;3.400;2023-03-08T09:34:46;14.90;53.10
46754;DHT22;32500;50.620;3.400;2023-03-08T09:37:12;14.80;52.90
46754;DHT22;32500;50.620;3.400;2023-03-08T09:39:37;14.80;52.90
46754;DHT22;32500;50.620;3.400;2023-03-08T09:42:06;14.90;52.90
46754;DHT22;32500;50.620;3.400;2023-03-08T09:48:03;15.00;52.60
46754;DHT22;32500;50.620;3.400;2023-03-08T09:52:47;15.00;52.80
46754;DHT22;32500;50.620;3.400;2023-03-08T09:55:31;15.00;52.50
46754;DHT22;32500;50.620;3.400;2023-03-08T09:58:23;15.00;52.50
46754;DHT22;32500;50.620;3.400;2023-03-08T10:00:45;15.00;52.60
46754;DHT22;32500;50.620;3.400;2023-03-08T10:03:36;15.00;52.60
46754;DHT22;32500;50.620;3.400;2023-03-08T10:06:18;15.00;52.50
46754;DHT22;32500;50.620;3.400;2023-03-08T10:08:55;15.00;52.50
46754;DHT22;32500;50.620;3.400;2023-03-08T10:12:00;15.00;52.50
46754;DHT22;32500;50.620;3.400;2023-03-08T10:14:27;15.10;52.40
46754;DHT22;32500;50.620;3.400;2023-03-08T10:16:59;15.00;52.80
46754;DHT22;32500;50.620;3.400;2023-03-08T10:21:57;15.10;53.00
46754;DHT22;32500;50.620;3.400;2023-03-08T10:24:33;15.00;53.70
46754;DHT22;32500;50.620;3.400;2023-03-08T10:27:14;15.00;54.10
46754;DHT22;32500;50.620;3.400;2023-03-08T10:29:47;15.00;54.30
46754;DHT22;32500;50.620;3.400;2023-03-08T10:32:13;15.00;53.80
46754;DHT22;32500;50.620;3.400;2023-03-08T10:34:38;14.90;53.50
46754;DHT22;32500;50.620;3.400;2023-03-08T10:39:20;15.00;53.10
46754;DHT22;32500;50.620;3.400;2023-03-08T10:41:52;15.10;53.90
46754;DHT22;32500;50.620;3.400;2023-03-08T10:47:04;15.00;54.30
46754;DHT22;32500;50.620;3.400;2023-03-08T10:49:41;15.00;54.30
46754;DHT22;32500;50.620;3.400;2023-03-08T10:52:25;15.10;54.10
46754;DHT22;32500;50.620;3.400;2023-03-08T10:57:33;15.10;53.40
46754;DHT22;32500;50.620;3.400;2023-03-08T11:00:20;15.20;53.70
46754;DHT22;32500;50.620;3.400;2023-03-08T11:02:49;15.20;53.90
46754;DHT22;32500;50.620;3.400;2023-03-08T11:05:25;15.20;54.00
46754;DHT22;32500;50.620;3.400;2023-03-08T11:07:53;15.20;54.10
46754;DHT22;32500;50.620;3.400;2023-03-08T11:10:21;15.20;54.20
46754;DHT22;32500;50.620;3.400;2023-03-08T11:13:26;15.20;54.00
46754;DHT22;32500;50.620;3.400;2023-03-08T11:16:26;15.20;54.10
46754;DHT22;32500;50.620;3.400;2023-03-08T11:21:59;15.20;54.00
46754;DHT22;32500;50.620;3.400;2023-03-08T11:35:36;15.30;53.80
46754;DHT22;32500;50.620;3.400;2023-03-08T11:38:17;15.30;53.60
46754;DHT22;32500;50.620;3.400;2023-03-08T11:51:32;15.30;53.60
46754;DHT22;32500;50.620;3.400;2023-03-08T11:54:09;15.30;53.90
46754;DHT22;32500;50.620;3.400;2023-03-08T11:56:59;15.30;53.90
46754;DHT22;32500;50.620;3.400;2023-03-08T11:59:32;15.40;53.80
46754;DHT22;32500;50.620;3.400;2023-03-08T12:04:59;15.40;53.10
46754;DHT22;32500;50.620;3.400;2023-03-08T12:07:31;15.40;53.30
46754;DHT22;32500;50.620;3.400;2023-03-08T12:18:05;15.30;53.70
46754;DHT22;32500;50.620;3.400;2023-03-08T12:32:53;15.40;53.50
46754;DHT22;32500;50.620;3.400;2023-03-08T12:35:35;15.40;53.30
46754;DHT22;32500;50.620;3.400;2023-03-08T12:43:26;15.60;53.10
46754;DHT22;32500;50.620;3.400;2023-03-08T12:48:26;15.80;53.10
46754;DHT22;32500;50.620;3.400;2023-03-08T12:50:55;15.80;53.20
46754;DHT22;32500;50.620;3.400;2023-03-08T12:56:29;15.70;52.90
46754;DHT22;32500;50.620;3.400;2023-03-08T13:01:42;15.80;53.00
46754;DHT22;32500;50.620;3.400;2023-03-08T13:12:27;15.90;53.20
46754;DHT22;32500;50.620;3.400;2023-03-08T13:15:17;15.90;52.80
46754;DHT22;32500;50.620;3.400;2023-03-08T13:23:05;15.90;52.80
46754;DHT22;32500;50.620;3.400;2023-03-08T13:28:18;16.00;52.50
46754;DHT22;32500;50.620;3.400;2023-03-08T13:33:28;16.00;52.50
46754;DHT22;32500;50.620;3.400;2023-03-08T13:35:59;15.90;52.60
46754;DHT22;32500;50.620;3.400;2023-03-08T13:38:28;15.90;52.50
46754;DHT22;32500;50.620;3.400;2023-03-08T13:40:55;15.80;52.40
46754;DHT22;32500;50.620;3.400;2023-03-08T13:43:23;15.60;52.70
46754;DHT22;32500;50.620;3.400;2023-03-08T13:45:51;15.60;53.90
46754;DHT22;32500;50.620;3.400;2023-03-08T13:48:19;15.70;54.80
46754;DHT22;32500;50.620;3.400;2023-03-08T13:50:48;15.80;55.50
46754;DHT22;32500;50.620;3.400;2023-03-08T13:53:21;15.80;55.30
46754;DHT22;32500;50.620;3.400;2023-03-08T13:55:49;15.80;55.40
46754;DHT22;32500;50.620;3.400;2023-03-08T13:58:44;15.90;55.00
46754;DHT22;32500;50.620;3.400;2023-03-08T14:01:20;15.90;54.70
46754;DHT22;32500;50.620;3.400;2023-03-08T14:03:50;15.80;54.70
46754;DHT22;32500;50.620;3.400;2023-03-08T14:08:42;15.90;54.80
46754;DHT22;32500;50.620;3.400;2023-03-08T14:11:24;16.00;54.40
46754;DHT22;32500;50.620;3.400;2023-03-08T14:13:52;16.00;54.40
46754;DHT22;32500;50.620;3.400;2023-03-08T14:16:44;15.90;54.30
46754;DHT22;32500;50.620;3.400;2023-03-08T14:19:24;15.70;54.30
46754;DHT22;32500;50.620;3.400;2023-03-08T14:22:11;15.80;54.60
46754;DHT22;32500;50.620;3.400;2023-03-08T14:24:37;15.80;54.50
46754;DHT22;32500;50.620;3.400;2023-03-08T14:29:41;15.90;54.50
46754;DHT22;32500;50.620;3.400;2023-03-08T14:34:36;16.00;54.50
46754;DHT22;32500;50.620;3.400;2023-03-08T14:37:05;15.90;54.10
46754;DHT22;32500;50.620;3.400;2023-03-08T14:39:33;16.00;54.30
46754;DHT22;32500;50.620;3.400;2023-03-08T14:42:32;16.00;53.90
46754;DHT22;32500;50.620;3.400;2023-03-08T14:45:05;16.10;53.70
46754;DHT22;32500;50.620;3.400;2023-03-08T14:47:48;16.10;54.00
46754;DHT22;32500;50.620;3.400;2023-03-08T14:50:19;16.10;53.70
46754;DHT22;32500;50.620;3.400;2023-03-08T14:52:47;16.20;53.50
46754;DHT22;32500;50.620;3.400;2023-03-08T14:55:31;16.20;53.40
46754;DHT22;32500;50.620;3.400;2023-03-08T14:58:01;16.30;53.50
46754;DHT22;32500;50.620;3.400;2023-03-08T15:00:28;16.40;53.20
46754;DHT22;32500;50.620;3.400;2023-03-08T15:02:56;16.50;52.90
46754;DHT22;32500;50.620;3.400;2023-03-08T15:05:23;16.60;52.70
46754;DHT22;32500;50.620;3.400;2023-03-08T15:07:50;16.60;52.60
46754;DHT22;32500;50.620;3.400;2023-03-08T15:10:25;16.70;52.50
46754;DHT22;32500;50.620;3.400;2023-03-08T15:12:52;16.70;52.30
46754;DHT22;32500;50.620;3.400;2023-03-08T15:15:18;16.70;52.60
46754;DHT22;32500;50.620;3.400;2023-03-08T15:17:43;16.70;52.80
46754;DHT22;32500;50.620;3.400;2023-03-08T15:20:11;16.80;52.40
46754;DHT22;32500;50.620;3.400;2023-03-08T15:22:51;16.80;52.50
46754;DHT22;32500;50.620;3.400;2023-03-08T15:25:24;16.90;52.10
46754;DHT22;32500;50.620;3.400;2023-03-08T15:27:50;16.90;51.90
46754;DHT22;32500;50.620;3.400;2023-03-08T15:30:20;17.00;51.60
46754;DHT22;32500;50.620;3.400;2023-03-08T15:32:46;17.10;51.40
46754;DHT22;32500;50.620;3.400;2023-03-08T15:35:12;17.10;51.50
46754;DHT22;32500;50.620;3.400;2023-03-08T15:37:38;17.10;51.30
46754;DHT22;32500;50.620;3.400;2023-03-08T15:40:04;17.20;51.30
46754;DHT22;32500;50.620;3.400;2023-03-08T15:42:33;17.20;51.20
46754;DHT22;32500;50.620;3.400;2023-03-08T15:45:00;17.20;51.60
46754;DHT22;32500;50.620;3.400;2023-03-08T15:47:26;17.20;51.30
46754;DHT22;32500;50.620;3.400;2023-03-08T15:49:52;17.20;51.00
46754;DHT22;32500;50.620;3.400;2023-03-08T15:52:17;17.20;51.20
46754;DHT22;32500;50.620;3.400;2023-03-08T15:54:43;17.30;51.50
46754;DHT22;32500;50.620;3.400;2023-03-08T15:57:12;17.20;51.60
46754;DHT22;32500;50.620;3.400;2023-03-08T15:59:40;17.20;51.70
46754;DHT22;32500;50.620;3.400;2023-03-08T16:02:08;17.20;51.80
46754;DHT22;32500;50.620;3.400;2023-03-08T16:04:35;17.20;51.70
46754;DHT22;32500;50.620;3.400;2023-03-08T16:07:01;17.30;51.40
46754;DHT22;32500;50.620;3.400;2023-03-08T16:09:27;17.30;51.20
46754;DHT22;32500;50.620;3.400;2023-03-08T16:11:53;17.40;51.30
46754;DHT22;32500;50.620;3.400;2023-03-08T16:14:18;17.40;51.20
46754;DHT22;32500;50.620;3.400;2023-03-08T16:16:44;17.40;50.90
46754;DHT22;32500;50.620;3.400;2023-03-08T16:19:10;17.30;51.00
46754;DHT22;32500;50.620;3.400;2023-03-08T16:21:36;17.30;51.10
46754;DHT22;32500;50.620;3.400;2023-03-08T16:24:01;17.30;51.30
46754;DHT22;32500;50.620;3.400;2023-03-08T16:26:28;17.30;51.30
46754;DHT22;32500;50.620;3.400;2023-03-08T16:28:54;17.30;51.50
46754;DHT22;32500;50.620;3.400;2023-03-08T16:31:21;17.30;51.90
46754;DHT22;32500;50.620;3.400;2023-03-08T16:33:47;17.30;52.00
46754;DHT22;32500;50.620;3.400;2023-03-08T16:36:13;17.30;51.70
46754;DHT22;32500;50.620;3.400;2023-03-08T16:38:39;17.30;51.60
46754;DHT22;32500;50.620;3.400;2023-03-08T16:41:05;17.20;51.60
46754;DHT22;32500;50.620;3.400;2023-03-08T16:43:31;17.20;51.50
46754;DHT22;32500;50.620;3.400;2023-03-08T16:45:59;17.20;51.50
46754;DHT22;32500;50.620;3.400;2023-03-08T16:48:26;17.20;51.30
46754;DHT22;32500;50.620;3.400;2023-03-08T16:50:55;17.10;51.30
46754;DHT22;32500;50.620;3.400;2023-03-08T16:53:21;17.00;51.40
46754;DHT22;32500;50.620;3.400;2023-03-08T16:55:47;17.00;51.60
46754;DHT22;32500;50.620;3.400;2023-03-08T16:58:14;17.00;51.70
46754;DHT22;32500;50.620;3.400;2023-03-08T17:00:40;16.90;51.60
46754;DHT22;32500;50.620;3.400;2023-03-08T17:03:06;17.00;51.70
46754;DHT22;32500;50.620;3.400;2023-03-08T17:05:32;16.90;51.70
46754;DHT22;32500;50.620;3.400;2023-03-08T17:07:58;17.00;51.70
46754;DHT22;32500;50.620;3.400;2023-03-08T17:10:24;17.00;51.60
46754;DHT22;32500;50.620;3.400;2023-03-08T17:12:49;17.00;51.50
46754;DHT22;32500;50.620;3.400;2023-03-08T17:15:15;17.00;51.40
46754;DHT22;32500;50.620;3.400;2023-03-08T17:17:41;17.00;51.40
46754;DHT22;32500;50.620;3.400;2023-03-08T17:20:07;17.00;51.40
46754;DHT22;32500;50.620;3.400;2023-03-08T17:22:33;17.00;51.30
46754;DHT22;32500;50.620;3.400;2023-03-08T17:25:00;17.00;51.30
46754;DHT22;32500;50.620;3.400;2023-03-08T17:27:26;17.00;51.40
46754;DHT22;32500;50.620;3.400;2023-03-08T17:29:52;17.00;51.30